Time;durP1;ratioP1;P1;durP2;ratioP2;P2;SDS_P1;SDS_P2;PMS_P1;PMS_P2;Temp;Humidity;BMP_temperature;BMP_pressure;BME280_temperature;BME280_humidity;BME280_pressure;Samples;Min_cycle;Max_cycle;Signal;HPM_P1;HPM_P2
2022/08/16 00:02:17;;;;;;;;;34.50;31.50;;;;;22.55;61.45;100518.56;5097301;27;49749;-74
2022/08/16 00:04:43;;;;;;;;;39.50;34.75;;;;;22.51;61.90;100516.91;5094164;27;49957;-71
2022/08/16 00:07:08;;;;;;;;;33.25;30.25;;;;;22.43;61.94;100503.78;5091746;27;49711;-75
2022/08/16 00:09:33;;;;;;;;;32.00;30.25;;;;;22.53;62.00;100533.78;5094085;27;50106;-73
2022/08/16 00:11:59;;;;;;;;;40.00;33.75;;;;;22.49;62.24;100530.34;5091546;27;54776;-74
2022/08/16 00:14:29;;;;;;;;;28.25;26.00;;;;;22.48;62.61;100541.94;5090739;27;49707;-74
2022/08/16 00:16:55;;;;;;;;;34.50;30.00;;;;;22.21;62.74;100495.56;5071466;27;49743;-74
2022/08/16 00:19:27;;;;;;;;;36.50;33.50;;;;;22.44;63.03;100536.75;5088782;27;49793;-74
2022/08/16 00:21:53;;;;;;;;;33.25;31.50;;;;;22.31;63.11;100530.91;5091179;27;49722;-74
2022/08/16 00:24:22;;;;;;;;;33.75;32.25;;;;;22.30;63.28;100525.63;5092132;27;49641;-73
2022/08/16 00:26:48;;;;;;;;;37.50;33.50;;;;;22.28;63.21;100539.88;5085850;27;50013;-73
2022/08/16 00:29:15;;;;;;;;;36.50;33.25;;;;;22.33;63.89;100550.47;5093292;27;50005;-73
2022/08/16 00:31:42;;;;;;;;;33.50;31.50;;;;;22.32;63.92;100545.16;5092932;27;49865;-73
2022/08/16 00:34:07;;;;;;;;;37.00;33.00;;;;;22.32;64.14;100550.50;5093415;27;49716;-73
2022/08/16 00:36:33;;;;;;;;;35.75;32.75;;;;;22.18;64.30;100525.06;5093299;27;49526;-73
2022/08/16 00:38:58;;;;;;;;;33.25;32.00;;;;;22.35;64.25;100547.72;5093625;27;49647;-73
2022/08/16 00:41:27;;;;;;;;;38.50;31.25;;;;;22.35;64.53;100543.25;5093362;27;50394;-73
2022/08/16 00:43:52;;;;;;;;;33.50;30.50;;;;;22.35;64.56;100547.72;5093128;27;49795;-73
2022/08/16 00:46:32;;;;;;;;;36.00;33.75;;;;;22.37;64.36;100545.88;5092716;27;49642;-73
2022/08/16 00:48:58;;;;;;;;;37.00;33.50;;;;;22.34;64.58;100538.84;5093313;27;49896;-73
2022/08/16 00:51:24;;;;;;;;;36.50;33.50;;;;;22.37;64.94;100543.19;5092679;27;50828;-73
2022/08/16 00:53:52;;;;;;;;;42.25;36.25;;;;;22.39;65.02;100550.28;5096303;27;49716;-73
2022/08/16 00:56:21;;;;;;;;;31.75;31.00;;;;;22.38;64.96;100542.28;5108539;27;49842;-73
2022/08/16 00:58:47;;;;;;;;;40.00;33.50;;;;;22.42;65.06;100534.13;5090269;27;50384;-73
2022/08/16 01:01:15;;;;;;;;;41.75;35.50;;;;;22.42;65.24;100533.25;5107519;27;49490;-74
2022/08/16 01:03:45;;;;;;;;;33.75;31.25;;;;;22.45;65.11;100530.47;5108764;27;49544;-73
2022/08/16 01:06:11;;;;;;;;;37.75;33.00;;;;;22.38;65.10;100510.19;5108435;27;49736;-73
2022/08/16 01:08:37;;;;;;;;;42.75;36.50;;;;;22.42;64.90;100519.88;5109751;27;49631;-73
2022/08/16 01:11:04;;;;;;;;;39.75;34.50;;;;;22.42;64.94;100512.72;5092500;27;50986;-73
2022/08/16 01:13:33;;;;;;;;;36.25;33.50;;;;;22.46;64.81;100518.84;5110827;27;49253;-73
2022/08/16 01:16:02;;;;;;;;;32.25;30.75;;;;;22.50;64.94;100526.75;5110859;27;49435;-73
2022/08/16 01:18:33;;;;;;;;;35.75;33.00;;;;;22.50;64.84;100515.16;5110284;27;49248;-73
2022/08/16 01:21:23;;;;;;;;;36.00;33.50;;;;;22.49;64.68;100508.94;5110380;27;50063;-73
2022/08/16 01:23:58;;;;;;;;;42.50;36.00;;;;;22.52;64.42;100514.19;5110411;27;49573;-73
2022/08/16 01:26:26;;;;;;;;;38.50;34.75;;;;;22.39;64.42;100496.78;5091848;27;49430;-73
2022/08/16 01:28:53;;;;;;;;;36.00;31.25;;;;;22.45;64.18;100503.72;5108967;27;49427;-73
2022/08/16 01:31:21;;;;;;;;;37.25;34.00;;;;;22.48;64.27;100508.97;5089062;27;50137;-73
2022/08/16 01:33:47;;;;;;;;;38.25;33.50;;;;;22.51;64.28;100515.09;5092455;27;49763;-73
2022/08/16 01:36:12;;;;;;;;;28.25;27.25;;;;;22.52;63.88;100524.00;5073566;27;50056;-73
2022/08/16 01:38:41;;;;;;;;;40.00;35.00;;;;;22.50;63.74;100523.19;5092544;27;49696;-73
2022/08/16 01:41:13;;;;;;;;;37.00;33.50;;;;;22.45;63.61;100520.66;5091881;27;50460;-73
2022/08/16 01:43:41;;;;;;;;;37.50;35.25;;;;;22.49;63.64;100535.69;5092071;27;49772;-73
2022/08/16 01:46:17;;;;;;;;;37.75;32.00;;;;;22.13;63.72;100478.00;5091946;27;49577;-73
2022/08/16 01:48:43;;;;;;;;;41.50;34.75;;;;;22.33;63.49;100515.69;5092419;27;50152;-73
2022/08/16 01:51:15;;;;;;;;;38.25;32.75;;;;;22.46;63.34;100525.06;5092025;27;50570;-73
2022/08/16 01:53:41;;;;;;;;;36.50;31.75;;;;;22.45;63.27;100526.00;5086062;27;49871;-73
2022/08/16 01:56:06;;;;;;;;;31.00;30.75;;;;;22.41;63.17;100521.69;5092171;27;49621;-73
2022/08/16 01:58:32;;;;;;;;;37.25;33.25;;;;;22.48;63.34;100538.38;5092077;27;49533;-73
2022/08/16 02:00:57;;;;;;;;;35.75;33.50;;;;;22.41;63.66;100528.81;5072998;27;52524;-73
2022/08/16 02:03:23;;;;;;;;;35.25;31.75;;;;;22.46;63.80;100540.25;5091684;27;49863;-73
2022/08/16 02:05:48;;;;;;;;;36.50;32.25;;;;;22.46;63.88;100533.09;5091835;27;49955;-73
2022/08/16 02:08:14;;;;;;;;;35.25;32.00;;;;;22.26;64.07;100490.06;5092149;27;49950;-74
2022/08/16 02:10:39;;;;;;;;;38.25;33.00;;;;;22.41;64.08;100508.31;5091812;27;50618;-75
2022/08/16 02:13:07;;;;;;;;;41.00;36.00;;;;;22.41;64.15;100513.66;5091833;27;49807;-74
2022/08/16 02:15:35;;;;;;;;;33.25;31.25;;;;;22.28;64.02;100491.75;5091564;27;49956;-73
2022/08/16 02:18:02;;;;;;;;;33.75;31.50;;;;;22.36;63.91;100510.22;5091727;27;49828;-75
2022/08/16 02:20:31;;;;;;;;;36.00;31.75;;;;;22.43;63.84;100526.97;5091462;27;50853;-75
2022/08/16 02:22:58;;;;;;;;;35.75;33.75;;;;;22.30;63.94;100507.78;5091598;27;49779;-73
2022/08/16 02:25:23;;;;;;;;;32.00;31.25;;;;;22.45;63.79;100520.66;5091820;27;50353;-73
2022/08/16 02:27:49;;;;;;;;;37.25;33.25;;;;;22.32;63.76;100505.06;5091900;27;49953;-74
2022/08/16 02:30:20;;;;;;;;;36.00;33.25;;;;;22.39;63.71;100494.13;5091303;27;50629;-74
2022/08/16 02:32:46;;;;;;;;;35.75;32.25;;;;;22.43;63.98;100505.56;5091648;27;49718;-74
2022/08/16 02:35:12;;;;;;;;;39.50;34.50;;;;;22.32;63.96;100484.53;5091409;27;49921;-73
2022/08/16 02:37:37;;;;;;;;;34.00;31.25;;;;;22.31;63.97;100488.13;5093668;27;49794;-74
2022/08/16 02:40:04;;;;;;;;;34.50;30.25;;;;;22.39;64.12;100510.16;5105443;27;49937;-73
2022/08/16 02:42:30;;;;;;;;;40.25;33.25;;;;;22.27;64.24;100481.13;5106259;27;49421;-74
2022/08/16 02:44:55;;;;;;;;;37.00;33.75;;;;;22.26;64.35;100484.72;5106026;27;49522;-74
2022/08/16 02:47:21;;;;;;;;;38.25;34.25;;;;;22.28;64.25;100474.84;5107267;27;49292;-74
2022/08/16 02:49:46;;;;;;;;;37.25;33.00;;;;;22.31;64.12;100481.91;5105941;27;49794;-74
2022/08/16 02:52:12;;;;;;;;;37.75;33.50;;;;;22.19;63.99;100461.75;5106765;27;49350;-74
2022/08/16 02:54:38;;;;;;;;;38.50;33.75;;;;;22.24;63.87;100470.53;5107033;27;49759;-74
2022/08/16 02:57:04;;;;;;;;;38.00;33.75;;;;;22.19;63.97;100453.75;5106653;27;50261;-74
2022/08/16 02:59:29;;;;;;;;;39.75;35.50;;;;;22.28;63.73;100465.00;5105469;27;49447;-75
2022/08/16 03:01:55;;;;;;;;;40.00;33.25;;;;;22.37;63.64;100460.28;5107190;27;49273;-73
2022/08/16 03:04:21;;;;;;;;;34.75;33.50;;;;;22.34;63.64;100457.72;5100149;27;49226;-73
2022/08/16 03:06:47;;;;;;;;;37.75;32.25;;;;;22.32;63.77;100447.09;5106834;27;49555;-74
2022/08/16 03:09:12;;;;;;;;;40.00;34.00;;;;;22.33;63.52;100446.16;5106405;27;49763;-76
2022/08/16 03:11:37;;;;;;;;;37.00;34.00;;;;;22.33;63.36;100442.63;5106547;27;49342;-74
2022/08/16 03:14:03;;;;;;;;;35.75;32.25;;;;;22.33;63.14;100464.00;5105819;27;49569;-75
2022/08/16 03:16:29;;;;;;;;;39.50;33.00;;;;;22.26;63.31;100458.84;5107000;27;49316;-74
2022/08/16 03:18:54;;;;;;;;;36.75;33.00;;;;;22.40;63.27;100466.44;5106926;27;49873;-75
2022/08/16 03:21:20;;;;;;;;;36.75;34.00;;;;;22.26;63.10;100452.63;5106677;27;49686;-73
2022/08/16 03:23:46;;;;;;;;;35.50;32.25;;;;;22.38;63.46;100486.97;5107608;27;49597;-75
2022/08/16 03:26:12;;;;;;;;;32.75;31.75;;;;;22.39;63.21;100485.19;5109731;27;49585;-74
2022/08/16 03:28:38;;;;;;;;;38.25;31.25;;;;;22.39;63.27;100490.53;5110044;27;49460;-74
2022/08/16 03:31:03;;;;;;;;;34.50;31.00;;;;;22.33;63.59;100482.72;5108873;27;49320;-74
2022/08/16 03:33:29;;;;;;;;;35.75;31.50;;;;;22.36;63.72;100496.00;5110437;27;49889;-74
2022/08/16 03:35:58;;;;;;;;;38.25;34.00;;;;;22.24;63.67;100482.09;5109985;27;49646;-74
2022/08/16 03:38:26;;;;;;;;;43.25;35.75;;;;;22.30;63.43;100494.41;5108932;27;50397;-75
2022/08/16 03:40:52;;;;;;;;;38.50;33.25;;;;;22.25;63.74;100496.34;5108976;27;49668;-74
2022/08/16 03:43:18;;;;;;;;;39.00;34.00;;;;;22.27;64.00;100494.47;5109790;27;49669;-75
2022/08/16 03:45:43;;;;;;;;;37.75;32.75;;;;;22.23;64.07;100488.38;5109889;27;49349;-74
2022/08/16 03:48:09;;;;;;;;;40.75;34.00;;;;;22.10;64.16;100476.31;5111576;27;49866;-75
2022/08/16 03:50:36;;;;;;;;;34.75;32.75;;;;;22.22;63.97;100494.63;5091034;27;49647;-74
2022/08/16 03:53:03;;;;;;;;;35.75;32.50;;;;;22.14;64.21;100480.63;5109599;27;49747;-74
2022/08/16 03:55:28;;;;;;;;;36.50;33.50;;;;;22.05;64.59;100462.16;5109060;27;49275;-74
2022/08/16 03:57:54;;;;;;;;;44.50;37.00;;;;;22.14;64.84;100487.78;5108304;27;50075;-73
2022/08/16 04:00:23;;;;;;;;;42.50;36.50;;;;;22.01;64.80;100460.53;5107592;27;49683;-75
2022/08/16 04:02:51;;;;;;;;;37.25;32.75;;;;;22.08;64.70;100477.25;5109793;27;49430;-74
2022/08/16 04:05:17;;;;;;;;;40.25;36.25;;;;;22.08;64.70;100480.81;5108954;27;49414;-75
2022/08/16 04:07:42;;;;;;;;;40.50;33.50;;;;;21.96;64.53;100471.34;5108484;27;50287;-75
2022/08/16 04:10:10;;;;;;;;;37.00;33.00;;;;;22.12;64.51;100498.53;5102307;27;49434;-75
2022/08/16 04:12:36;;;;;;;;;39.50;33.75;;;;;22.06;64.44;100490.66;5109592;27;49356;-74
2022/08/16 04:15:03;;;;;;;;;40.25;34.25;;;;;22.11;64.72;100499.44;5109353;27;49806;-74
2022/08/16 04:17:29;;;;;;;;;35.25;33.25;;;;;22.04;64.65;100491.63;5110618;27;50144;-75
2022/08/16 04:19:55;;;;;;;;;44.25;38.00;;;;;22.06;64.76;100503.13;5098846;27;49827;-74
2022/08/16 04:22:21;;;;;;;;;40.00;36.00;;;;;21.98;65.34;100488.19;5108134;27;49378;-73
2022/08/16 04:24:47;;;;;;;;;42.50;37.00;;;;;21.99;65.04;100497.09;5109118;27;49587;-73
2022/08/16 04:27:12;;;;;;;;;46.50;37.75;;;;;22.00;65.33;100501.50;5109022;27;49892;-74
2022/08/16 04:29:38;;;;;;;;;41.75;34.00;;;;;22.02;65.21;100502.38;5109407;27;49540;-76
2022/08/16 04:32:03;;;;;;;;;43.50;38.25;;;;;21.93;65.19;100497.31;5109430;27;49484;-76
2022/08/16 04:34:31;;;;;;;;;33.75;31.50;;;;;22.03;65.02;100508.59;5108338;27;49492;-75
2022/08/16 04:36:58;;;;;;;;;44.00;36.25;;;;;22.03;65.42;100506.78;5107991;27;49613;-76
2022/08/16 04:39:28;;;;;;;;;35.00;32.75;;;;;21.93;65.36;100498.16;5108154;27;49707;-74
2022/08/16 04:41:53;;;;;;;;;42.75;38.25;;;;;21.96;65.64;100492.72;5107820;27;49698;-74
2022/08/16 04:44:19;;;;;;;;;45.25;38.00;;;;;22.00;65.97;100498.84;5109070;27;49640;-74
2022/08/16 04:46:44;;;;;;;;;42.25;36.00;;;;;21.92;66.42;100477.72;5099377;27;51189;-74
2022/08/16 04:49:10;;;;;;;;;40.75;35.00;;;;;22.01;66.78;100492.59;5110121;27;49382;-75
2022/08/16 04:51:39;;;;;;;;;43.50;36.25;;;;;21.93;66.65;100481.25;5107575;27;49780;-73
2022/08/16 04:54:04;;;;;;;;;38.25;33.75;;;;;21.92;67.09;100488.41;5108667;27;49728;-74
2022/08/16 04:56:29;;;;;;;;;43.75;34.75;;;;;21.97;66.98;100507.84;5107277;27;50063;-74
2022/08/16 04:58:55;;;;;;;;;37.25;31.00;;;;;21.84;67.04;100481.53;5104806;27;49742;-73
2022/08/16 05:01:20;;;;;;;;;42.25;36.00;;;;;21.97;67.26;100506.97;5096732;27;49967;-74
2022/08/16 05:03:46;;;;;;;;;41.75;35.75;;;;;21.92;67.38;100503.56;5107731;27;49603;-73
2022/08/16 05:06:12;;;;;;;;;41.25;35.00;;;;;21.96;67.30;100513.22;5106784;27;50660;-75
2022/08/16 05:08:38;;;;;;;;;47.00;36.75;;;;;21.96;67.34;100507.88;5106507;27;49529;-74
2022/08/16 05:11:05;;;;;;;;;44.25;35.75;;;;;21.99;67.42;100511.34;5107828;27;49380;-74
2022/08/16 05:13:32;;;;;;;;;40.50;35.75;;;;;21.96;67.27;100507.88;5107772;27;49254;-73
2022/08/16 05:15:58;;;;;;;;;42.25;35.50;;;;;22.02;67.43;100514.84;5106724;27;49477;-73
2022/08/16 05:18:23;;;;;;;;;37.50;34.00;;;;;22.04;67.40;100531.72;5105253;27;49528;-75
2022/08/16 05:20:48;;;;;;;;;40.25;37.00;;;;;22.02;67.37;100536.25;5106377;27;49810;-75
2022/08/16 05:23:16;;;;;;;;;42.50;34.50;;;;;22.06;67.23;100541.44;5106533;27;49421;-73
2022/08/16 05:25:41;;;;;;;;;46.25;35.50;;;;;22.05;67.13;100538.81;5098579;27;50584;-73
2022/08/16 05:28:09;;;;;;;;;46.50;37.25;;;;;22.15;67.44;100543.00;5107413;27;49488;-73
2022/08/16 05:30:34;;;;;;;;;42.25;36.75;;;;;22.15;67.46;100538.53;5107653;27;49381;-73
2022/08/16 05:33:00;;;;;;;;;38.00;33.00;;;;;22.22;67.39;100545.44;5098593;27;49822;-73
2022/08/16 05:35:25;;;;;;;;;40.50;34.50;;;;;22.25;67.43;100553.34;5095237;27;60662;-73
2022/08/16 05:37:50;;;;;;;;;39.25;32.25;;;;;22.27;67.15;100542.63;5102092;27;49708;-73
2022/08/16 05:40:16;;;;;;;;;42.75;33.50;;;;;21.50;66.79;100412.19;5086313;27;49467;-74
2022/08/16 05:42:41;;;;;;;;;36.00;33.00;;;;;22.32;66.56;100542.50;5106415;27;50553;-73
2022/08/16 05:45:07;;;;;;;;;35.25;32.50;;;;;22.34;66.41;100540.63;5096550;27;49638;-73
2022/08/16 05:47:33;;;;;;;;;32.50;29.25;;;;;22.36;66.20;100544.13;5102193;27;49728;-74
2022/08/16 05:49:58;;;;;;;;;33.75;31.00;;;;;22.36;65.81;100536.09;5091020;27;50650;-74
2022/08/16 05:52:24;;;;;;;;;35.75;33.00;;;;;22.31;65.52;100535.41;5092038;27;49850;-73
2022/08/16 05:54:49;;;;;;;;;40.50;35.00;;;;;22.38;65.43;100539.59;5108586;27;53237;-73
2022/08/16 05:57:16;;;;;;;;;36.50;31.50;;;;;22.48;65.70;100554.44;5099123;27;49771;-74
2022/08/16 05:59:41;;;;;;;;;36.00;32.25;;;;;22.48;65.35;100549.97;5091929;27;49685;-72
2022/08/16 06:02:07;;;;;;;;;40.75;35.50;;;;;22.44;65.11;100548.31;5099107;27;50107;-73
2022/08/16 06:04:32;;;;;;;;;32.50;31.25;;;;;22.54;64.84;100548.91;5105664;27;49890;-73
2022/08/16 06:06:58;;;;;;;;;38.25;33.75;;;;;22.54;64.54;100540.88;5106535;27;49405;-72
2022/08/16 06:09:24;;;;;;;;;34.75;31.50;;;;;22.78;64.25;100574.88;5106483;27;49426;-75
2022/08/16 06:11:50;;;;;;;;;33.00;31.50;;;;;22.73;63.68;100550.06;5103766;27;49508;-71
2022/08/16 06:14:15;;;;;;;;;35.00;31.75;;;;;22.89;63.78;100560.31;5104376;27;49548;-72
2022/08/16 06:16:41;;;;;;;;;31.00;28.00;;;;;23.07;63.39;100578.44;5074585;27;49788;-72
2022/08/16 06:19:06;;;;;;;;;31.25;28.75;;;;;23.07;62.95;100570.41;5102422;27;49871;-80
2022/08/16 06:21:31;;;;;;;;;29.25;27.00;;;;;23.01;62.40;100550.06;5107406;27;49533;-77
2022/08/16 06:23:57;;;;;;;;;30.00;26.00;;;;;23.08;61.81;100561.44;5107564;27;49461;-79
2022/08/16 06:26:22;;;;;;;;;28.00;27.00;;;;;23.27;61.66;100578.63;5110429;27;49429;-76
2022/08/16 06:28:48;;;;;;;;;23.25;23.00;;;;;23.15;61.57;100554.94;5106651;27;49611;-76
2022/08/16 06:31:14;;;;;;;;;21.00;20.25;;;;;23.36;60.51;100556.03;5106262;27;49953;-77
2022/08/16 06:33:40;;;;;;;;;23.75;20.25;;;;;23.38;60.55;100544.31;5106875;27;50116;-77
2022/08/16 06:36:07;;;;;;;;;26.75;25.50;;;;;23.54;60.18;100554.47;5105363;27;49801;-75
2022/08/16 06:38:34;;;;;;;;;28.75;28.50;;;;;23.78;59.81;100572.38;5106517;27;49645;-77
2022/08/16 06:40:59;;;;;;;;;29.00;26.00;;;;;23.83;59.80;100566.84;5087181;27;49755;-70
2022/08/16 06:43:25;;;;;;;;;21.00;19.75;;;;;23.91;58.57;100573.66;5104514;27;50684;-70
2022/08/16 06:45:50;;;;;;;;;25.75;22.25;;;;;23.80;58.40;100549.06;5105482;27;49717;-70
2022/08/16 06:48:15;;;;;;;;;29.25;28.50;;;;;23.96;58.72;100565.47;5104937;27;49654;-71
2022/08/16 06:50:41;;;;;;;;;25.00;23.75;;;;;23.95;58.58;100555.69;5101581;27;53579;-71
2022/08/16 06:53:06;;;;;;;;;22.50;22.50;;;;;24.14;58.40;100578.19;5101061;27;50609;-82
2022/08/16 06:55:35;;;;;;;;;25.75;25.25;;;;;24.18;57.91;100565.53;5107622;27;49294;-72
2022/08/16 06:58:01;;;;;;;;;27.00;25.50;;;;;24.23;57.79;100568.91;5104554;27;49516;-75
2022/08/16 07:00:27;;;;;;;;;25.50;24.25;;;;;24.12;57.70;100563.94;5104207;27;49636;-74
2022/08/16 07:02:52;;;;;;;;;21.50;19.50;;;;;24.12;57.88;100549.66;5104834;27;49952;-74
2022/08/16 07:05:19;;;;;;;;;24.75;21.75;;;;;24.29;57.86;100579.38;5100686;27;49594;-73
2022/08/16 07:07:48;;;;;;;;;20.75;19.00;;;;;24.30;57.71;100562.34;5101226;27;49596;-73
2022/08/16 07:10:16;;;;;;;;;23.25;22.00;;;;;24.28;57.05;100548.13;5102479;27;49465;-73
2022/08/16 07:12:41;;;;;;;;;19.75;19.25;;;;;24.35;56.60;100556.84;5098115;27;49620;-71
2022/08/16 07:15:07;;;;;;;;;13.50;11.25;;;;;24.46;56.57;100570.72;5106145;27;49401;-71
2022/08/16 07:17:32;;;;;;;;;19.75;18.00;;;;;24.41;56.37;100565.50;5104977;27;49592;-71
2022/08/16 07:19:58;;;;;;;;;15.75;15.75;;;;;24.42;56.09;100572.66;5104937;27;49923;-72
2022/08/16 07:22:24;;;;;;;;;22.00;20.50;;;;;24.45;56.07;100577.03;5104682;27;49885;-71
2022/08/16 07:24:50;;;;;;;;;20.25;19.75;;;;;24.34;56.18;100552.44;5104721;27;49225;-72
2022/08/16 07:27:15;;;;;;;;;19.25;19.00;;;;;24.39;55.54;100563.84;5086746;27;49508;-72
2022/08/16 07:29:41;;;;;;;;;20.00;20.00;;;;;24.07;55.41;100522.16;5087562;27;49725;-72
2022/08/16 07:32:06;;;;;;;;;20.50;19.75;;;;;23.72;55.20;100468.06;5105968;27;50643;-73
2022/08/16 07:34:32;;;;;;;;;21.75;19.25;;;;;24.13;55.16;100514.75;5103658;27;49617;-71
2022/08/16 07:37:05;;;;;;;;;18.00;17.75;;;;;24.35;54.98;100546.13;5105970;27;49690;-73
2022/08/16 07:39:30;;;;;;;;;17.75;16.75;;;;;23.85;54.71;100479.22;5103298;27;49599;-72
2022/08/16 07:41:55;;;;;;;;;18.25;17.25;;;;;24.58;54.47;100577.41;5105011;27;50079;-73
2022/08/16 07:44:21;;;;;;;;;18.25;16.00;;;;;24.33;54.38;100535.47;5100709;27;49585;-73
2022/08/16 07:46:46;;;;;;;;;20.25;19.00;;;;;24.55;54.00;100563.19;5105394;27;49466;-73
2022/08/16 07:49:12;;;;;;;;;20.50;17.75;;;;;24.70;53.62;100577.78;5103184;27;49461;-73
2022/08/16 07:51:38;;;;;;;;;17.50;17.50;;;;;24.62;53.82;100568.31;5103533;27;50547;-72
2022/08/16 07:54:06;;;;;;;;;19.50;17.25;;;;;24.73;53.77;100583.03;5101073;27;49677;-73
2022/08/16 07:56:32;;;;;;;;;23.50;22.00;;;;;24.83;53.62;100594.28;5102049;27;49471;-72
2022/08/16 07:58:58;;;;;;;;;19.00;18.00;;;;;24.83;53.38;100584.41;5103676;27;50195;-72
2022/08/16 08:01:28;;;;;;;;;19.00;18.00;;;;;24.31;52.83;100474.69;5105928;27;49976;-72
2022/08/16 08:03:55;;;;;;;;;19.00;18.25;;;;;24.54;52.61;100501.53;5106405;27;49293;-73
2022/08/16 08:06:24;;;;;;;;;16.25;15.25;;;;;25.22;52.05;100596.28;5106290;27;49333;-73
2022/08/16 08:08:49;;;;;;;;;20.25;19.25;;;;;24.95;51.77;100534.69;5105645;27;49232;-73
2022/08/16 08:11:15;;;;;;;;;19.50;19.50;;;;;25.21;51.60;100565.00;5108943;27;49720;-73
2022/08/16 08:13:41;;;;;;;;;20.25;19.50;;;;;25.17;51.32;100539.19;5093846;27;49652;-72
2022/08/16 08:16:08;;;;;;;;;16.25;15.50;;;;;25.10;51.31;100552.88;5108025;27;49341;-73
2022/08/16 08:18:34;;;;;;;;;14.25;14.25;;;;;25.40;51.31;100565.94;5114556;27;49678;-73
2022/08/16 08:21:00;;;;;;;;;19.00;17.25;;;;;25.56;51.12;100598.38;5117954;27;49592;-73
2022/08/16 08:23:26;;;;;;;;;16.50;14.25;;;;;25.49;50.71;100578.09;5112537;27;49271;-73
2022/08/16 08:25:52;;;;;;;;;20.50;16.75;;;;;25.58;50.64;100583.09;5115784;27;49421;-73
2022/08/16 08:28:18;;;;;;;;;18.00;17.00;;;;;24.69;50.83;100446.31;5105215;27;49882;-73
2022/08/16 08:30:43;;;;;;;;;18.25;16.50;;;;;25.82;50.08;100595.44;5110938;27;49226;-73
2022/08/16 08:33:09;;;;;;;;;15.25;14.00;;;;;25.10;49.77;100460.69;5108477;27;49671;-73
2022/08/16 08:35:35;;;;;;;;;16.75;16.00;;;;;26.06;49.96;100600.69;5110362;27;49755;-74
2022/08/16 08:38:01;;;;;;;;;20.25;15.50;;;;;26.13;49.25;100600.31;5109688;27;49663;-74
2022/08/16 08:40:28;;;;;;;;;16.25;16.25;;;;;26.06;49.10;100580.03;5109809;27;49340;-72
2022/08/16 08:42:55;;;;;;;;;16.25;16.25;;;;;26.31;49.17;100595.00;5090912;27;49890;-72
2022/08/16 08:45:21;;;;;;;;;16.75;16.00;;;;;26.41;49.29;100596.34;5107914;27;49512;-72
2022/08/16 08:47:47;;;;;;;;;15.50;14.25;;;;;26.40;48.95;100578.47;5109859;27;49861;-72
2022/08/16 08:50:15;;;;;;;;;15.75;13.75;;;;;26.58;48.42;100600.94;5110814;27;50492;-72
2022/08/16 08:52:41;;;;;;;;;17.75;14.75;;;;;26.51;47.98;100579.69;5109605;27;49807;-73
2022/08/16 08:55:09;;;;;;;;;16.50;15.75;;;;;26.75;48.45;100601.88;5110264;27;49325;-73
2022/08/16 08:57:35;;;;;;;;;12.50;12.50;;;;;26.62;48.16;100575.59;5110490;27;49403;-76
2022/08/16 09:00:01;;;;;;;;;13.50;12.50;;;;;26.42;47.82;100525.44;5109899;27;50050;-78
2022/08/16 09:02:27;;;;;;;;;18.00;17.75;;;;;26.87;48.04;100586.06;5109525;27;49577;-75
2022/08/16 09:04:52;;;;;;;;;17.25;17.25;;;;;26.48;47.77;100499.09;5107836;27;49845;-78
2022/08/16 09:07:18;;;;;;;;;22.25;15.50;;;;;26.24;47.88;100470.66;5108680;27;49393;-78
2022/08/16 09:09:43;;;;;;;;;18.75;16.25;;;;;26.59;47.08;100543.47;5107726;27;49655;-81
2022/08/16 09:12:10;;;;;;;;;20.25;17.75;;;;;27.19;47.64;100615.00;5108004;27;49232;-79
2022/08/16 09:14:38;;;;;;;;;14.75;13.50;;;;;27.23;47.46;100623.81;5107482;27;49420;-78
2022/08/16 09:17:04;;;;;;;;;12.00;12.00;;;;;26.21;47.01;100455.53;5108649;27;49657;-79
2022/08/16 09:19:31;;;;;;;;;17.50;14.75;;;;;26.31;47.00;100455.09;5108796;27;49697;-76
2022/08/16 09:21:56;;;;;;;;;15.25;14.25;;;;;27.39;46.63;100632.84;5107971;27;49537;-74
2022/08/16 09:24:22;;;;;;;;;15.50;14.00;;;;;27.36;46.63;100614.13;5107661;27;49433;-76
2022/08/16 09:26:47;;;;;;;;;16.25;14.00;;;;;27.39;46.67;100613.97;5108147;27;49545;-74
2022/08/16 09:29:13;;;;;;;;;16.50;16.50;;;;;27.35;45.99;100601.63;5106426;27;49896;-73
2022/08/16 09:31:38;;;;;;;;;15.25;14.00;;;;;27.59;46.29;100623.72;5107410;27;52841;-74
2022/08/16 09:34:04;;;;;;;;;16.00;13.25;;;;;27.51;45.56;100607.09;5107886;27;51322;-76
2022/08/16 09:36:29;;;;;;;;;13.00;12.75;;;;;27.71;45.51;100630.38;5107468;27;49334;-73
2022/08/16 09:38:56;;;;;;;;;14.00;14.00;;;;;27.60;45.15;100591.31;5099700;27;51236;-78
2022/08/16 09:41:22;;;;;;;;;15.50;12.50;;;;;28.00;44.83;100635.09;5107588;27;49626;-75
2022/08/16 09:43:47;;;;;;;;;15.00;15.00;;;;;28.03;44.64;100628.66;5106740;27;49654;-77
2022/08/16 09:46:13;;;;;;;;;12.50;12.50;;;;;28.14;44.40;100621.72;5108911;27;49360;-74
2022/08/16 09:48:40;;;;;;;;;13.00;12.75;;;;;28.29;44.19;100625.44;5107761;27;50973;-74
2022/08/16 09:51:10;;;;;;;;;13.00;13.00;;;;;28.41;43.98;100623.91;5107063;27;49525;-74
2022/08/16 09:53:36;;;;;;;;;15.50;14.50;;;;;28.51;43.32;100627.81;5106439;27;49612;-75
2022/08/16 09:56:06;;;;;;;;;12.50;12.50;;;;;28.39;43.19;100597.00;5107669;27;49276;-74
2022/08/16 09:58:32;;;;;;;;;16.25;14.50;;;;;28.58;43.54;100622.97;5106867;27;50443;-74
2022/08/16 10:00:57;;;;;;;;;18.00;16.50;;;;;28.59;43.01;100630.09;5107501;27;49667;-72
2022/08/16 10:03:22;;;;;;;;;17.25;16.75;;;;;28.56;43.38;100619.44;5108441;27;49206;-74
2022/08/16 10:05:48;;;;;;;;;14.75;14.25;;;;;28.69;42.67;100621.41;5105793;27;49452;-72
2022/08/16 10:08:15;;;;;;;;;18.50;18.50;;;;;28.78;42.33;100620.00;5105450;27;49408;-73
2022/08/16 10:13:10;;;;;;;;;14.00;13.25;;;;;28.78;42.35;100607.38;5104300;27;49551;-73
2022/08/16 10:13:27;;;;;;;;;14.25;14.25;;;;;28.83;41.85;100595.41;5107105;27;49518;-73
2022/08/16 10:15:58;;;;;;;;;15.25;15.25;;;;;29.06;42.06;100622.03;5106571;27;49750;-73
2022/08/16 10:18:26;;;;;;;;;13.50;11.50;;;;;29.05;41.31;100599.53;5106852;27;50409;-71
2022/08/16 10:20:52;;;;;;;;;17.25;12.75;;;;;29.25;41.03;100608.31;5105912;27;49614;-74
2022/08/16 10:23:17;;;;;;;;;14.75;14.75;;;;;29.51;41.06;100614.88;5106203;27;49780;-71
2022/08/16 10:25:45;;;;;;;;;15.50;12.50;;;;;29.72;40.80;100623.50;5105857;27;49953;-71
2022/08/16 10:28:11;;;;;;;;;13.50;12.75;;;;;29.79;39.85;100614.06;5105271;27;51133;-72
2022/08/16 10:30:37;;;;;;;;;11.25;11.25;;;;;29.83;39.79;100616.50;5106078;27;49766;-72
2022/08/16 10:33:04;;;;;;;;;12.50;12.50;;;;;29.67;39.51;100602.16;5105876;27;49485;-73
2022/08/16 10:35:29;;;;;;;;;9.25;9.25;;;;;29.78;39.47;100620.44;5105149;27;49666;-73
2022/08/16 10:37:55;;;;;;;;;14.25;13.00;;;;;29.81;39.35;100631.94;5098309;27;49887;-72
2022/08/16 10:40:21;;;;;;;;;11.50;10.75;;;;;29.78;39.09;100624.00;5106801;27;49576;-72
2022/08/16 10:42:48;;;;;;;;;14.25;13.25;;;;;29.73;39.40;100618.03;5106620;27;49603;-72
2022/08/16 10:45:14;;;;;;;;;14.75;13.00;;;;;29.59;39.50;100589.09;5105646;27;49922;-72
2022/08/16 10:47:39;;;;;;;;;14.25;13.25;;;;;29.68;39.97;100603.91;5106150;27;49975;-72
2022/08/16 10:50:06;;;;;;;;;11.50;10.25;;;;;29.69;40.17;100623.69;5104852;27;49340;-72
2022/08/16 10:52:32;;;;;;;;;16.50;13.75;;;;;29.50;40.20;100614.00;5106720;27;49742;-75
2022/08/16 10:54:58;;;;;;;;;12.25;12.25;;;;;29.49;40.39;100624.91;5106343;27;50270;-72
2022/08/16 10:57:24;;;;;;;;;15.00;14.00;;;;;29.31;40.54;100608.78;5106410;27;50374;-71
2022/08/16 10:59:51;;;;;;;;;10.25;10.25;;;;;29.39;40.70;100620.97;5106060;27;49595;-75
2022/08/16 11:02:17;;;;;;;;;15.00;13.75;;;;;29.35;40.27;100626.59;5106434;27;49241;-73
2022/08/16 11:04:42;;;;;;;;;15.50;13.25;;;;;29.24;40.77;100633.56;5106256;27;49416;-72
2022/08/16 11:07:09;;;;;;;;;13.50;13.50;;;;;29.07;41.12;100619.22;5088118;27;50626;-72